Time;durP1;ratioP1;P1;durP2;ratioP2;P2;SDS_P1;SDS_P2;PMS_P1;PMS_P2;Temp;Humidity;BMP_temperature;BMP_pressure;BME280_temperature;BME280_humidity;BME280_pressure;Samples;Min_cycle;Max_cycle;Signal;HPM_P1;HPM_P2
2021/06/25 08:50:58;;;;;;;16.10;13.77;;;;;;;21.84;90.73;98801.13;125223;1093;64193;-80
2021/06/25 08:53:26;;;;;;;15.23;13.67;;;;;;;21.84;91.41;98795.70;125100;1092;64257;-80
2021/06/25 08:55:53;;;;;;;15.03;13.43;;;;;;;21.87;91.34;98803.48;124997;1093;64274;-80
2021/06/25 08:58:21;;;;;;;14.97;12.77;;;;;;;21.88;91.02;98810.61;125091;1092;64289;-80
2021/06/25 09:00:49;;;;;;;17.30;15.33;;;;;;;21.95;91.76;98804.45;125095;1093;64709;-81
2021/06/25 09:03:28;;;;;;;15.03;12.83;;;;;;;21.98;91.26;98813.06;125014;1093;64401;-81
2021/06/25 09:06:11;;;;;;;17.30;14.33;;;;;;;22.03;91.65;98807.95;125023;1093;64310;-81
2021/06/25 09:08:39;;;;;;;19.70;15.40;;;;;;;22.03;91.10;98812.53;125033;1093;64284;-81
2021/06/25 09:11:40;;;;;;;19.10;14.47;;;;;;;22.02;91.62;98803.55;125166;1093;64271;-81
2021/06/25 09:14:07;;;;;;;15.77;14.13;;;;;;;22.01;91.64;98814.58;125104;1092;64385;-80
2021/06/25 09:16:37;;;;;;;17.60;14.50;;;;;;;22.00;91.74;98818.33;125130;1093;64441;-81
2021/06/25 09:19:17;;;;;;;17.45;14.95;;;;;;;21.97;92.76;98819.53;125116;1092;64281;-80
2021/06/25 09:22:00;;;;;;;18.93;17.03;;;;;;;21.89;92.15;98822.30;125177;1093;64239;-80
2021/06/25 09:24:33;;;;;;;19.33;17.37;;;;;;;21.83;92.87;98815.73;125177;1093;64334;-81
2021/06/25 09:27:04;;;;;;;19.53;17.73;;;;;;;21.78;92.27;98828.14;125133;1093;64399;-79
2021/06/25 09:29:37;;;;;;;22.20;19.63;;;;;;;21.72;92.60;98828.84;125204;1093;64267;-80
2021/06/25 09:32:06;;;;;;;22.17;20.00;;;;;;;21.62;92.72;98824.50;125133;1093;64193;-80
2021/06/25 09:34:39;;;;;;;21.13;19.33;;;;;;;21.54;92.50;98819.12;124987;1093;64337;-80
2021/06/25 09:37:13;;;;;;;21.67;19.67;;;;;;;21.45;93.12;98834.56;125167;1093;64366;-80
2021/06/25 09:39:42;;;;;;;22.20;20.30;;;;;;;21.45;93.81;98831.84;125197;1093;64274;-80
2021/06/25 09:42:20;;;;;;;20.80;18.83;;;;;;;21.40;93.49;98836.95;125189;1093;64268;-80
2021/06/25 09:45:05;;;;;;;18.40;16.67;;;;;;;21.29;92.20;98831.05;125165;1093;64268;-80
2021/06/25 09:47:43;;;;;;;22.47;18.53;;;;;;;21.13;92.17;98832.79;125098;1092;64303;-80
2021/06/25 09:50:18;;;;;;;17.90;16.30;;;;;;;21.03;92.00;98834.85;125019;1093;64314;-77
2021/06/25 09:52:56;;;;;;;18.20;16.43;;;;;;;20.98;92.08;98843.49;125034;1093;64214;-77
2021/06/25 09:55:28;;;;;;;17.47;15.90;;;;;;;20.94;91.61;98861.13;124988;1093;64307;-77
2021/06/25 09:58:42;;;;;;;18.53;16.80;;;;;;;20.92;92.16;98856.90;125093;1093;64184;-78
2021/06/25 10:01:22;;;;;;;18.93;17.20;;;;;;;20.89;92.20;98863.50;124991;1093;64262;-77
2021/06/25 10:03:59;;;;;;;18.03;16.33;;;;;;;20.93;92.89;98861.28;125025;1093;64217;-77
2021/06/25 10:06:28;;;;;;;17.03;15.37;;;;;;;20.97;92.26;98860.78;125055;1092;64264;-75
2021/06/25 10:08:56;;;;;;;19.03;15.87;;;;;;;20.89;90.62;98868.92;125035;1092;64282;-76
2021/06/25 10:11:26;;;;;;;24.27;18.47;;;;;;;20.79;91.19;98870.97;125047;1092;64277;-76
2021/06/25 10:13:56;;;;;;;25.80;17.40;;;;;;;20.79;91.40;98873.67;125083;1093;64191;-77
2021/06/25 10:16:25;;;;;;;25.90;18.70;;;;;;;20.79;91.80;98877.22;124988;1093;64322;-77
2021/06/25 10:18:55;;;;;;;24.47;18.63;;;;;;;20.81;91.97;98875.20;125070;1093;64415;-77
2021/06/25 10:21:28;;;;;;;24.60;17.93;;;;;;;20.80;92.03;98881.64;125132;1092;64419;-77
2021/06/25 10:23:58;;;;;;;36.93;19.67;;;;;;;20.82;91.96;98885.00;125037;1091;64648;-77
2021/06/25 10:26:26;;;;;;;20.77;17.17;;;;;;;20.83;92.16;98889.42;125029;1092;64325;-78
2021/06/25 10:28:55;;;;;;;19.87;17.90;;;;;;;20.82;91.33;98884.16;125131;1093;64281;-77
2021/06/25 10:31:25;;;;;;;25.23;18.20;;;;;;;20.79;91.80;98889.92;125175;1093;64372;-77
2021/06/25 10:33:54;;;;;;;21.47;15.80;;;;;;;20.87;91.86;98889.91;125035;1093;64290;-77
2021/06/25 10:36:31;;;;;;;18.95;16.88;;;;;;;20.90;92.20;98891.44;125009;1093;64343;-77
2021/06/25 10:39:06;;;;;;;18.90;16.90;;;;;;;20.91;91.92;98901.27;125047;1093;64265;-77
2021/06/25 10:41:57;;;;;;;17.93;16.20;;;;;;;20.94;91.87;98903.63;125119;1092;64223;-77
2021/06/25 10:44:30;;;;;;;19.25;17.40;;;;;;;20.87;90.78;98916.16;125043;1092;64319;-76
2021/06/25 10:47:21;;;;;;;18.67;16.97;;;;;;;20.83;91.43;98910.25;125101;1093;64329;-78
2021/06/25 10:50:13;;;;;;;21.33;17.77;;;;;;;20.93;91.51;98915.47;124903;1093;64216;-81
2021/06/25 10:52:42;;;;;;;23.57;18.40;;;;;;;20.89;90.61;98919.55;124941;1093;64290;-81
2021/06/25 10:55:10;;;;;;;22.53;17.57;;;;;;;20.89;90.17;98916.84;124903;1093;64360;-80
2021/06/25 10:57:59;;;;;;;21.20;18.43;;;;;;;20.88;89.75;98918.72;124836;1093;64421;-80
2021/06/25 11:00:38;;;;;;;22.30;18.07;;;;;;;20.92;89.76;98917.34;124857;1093;64271;-81
2021/06/25 11:03:06;;;;;;;17.53;15.85;;;;;;;21.04;89.62;98921.40;124826;1093;64242;-81
2021/06/25 11:05:35;;;;;;;18.63;16.97;;;;;;;21.20;89.53;98922.39;124886;1093;64213;-81
2021/06/25 11:08:14;;;;;;;18.93;16.90;;;;;;;21.33;88.56;98922.70;124799;1093;64265;-81
2021/06/25 11:10:50;;;;;;;17.83;16.13;;;;;;;21.42;88.12;98932.52;124864;1093;64268;-81
2021/06/25 11:13:28;;;;;;;19.07;17.10;;;;;;;21.51;87.59;98925.20;124871;1093;64291;-81
2021/06/25 11:15:59;;;;;;;18.90;16.87;;;;;;;21.61;87.36;98920.42;124946;1091;64241;-81
2021/06/25 11:18:28;;;;;;;21.47;19.00;;;;;;;21.68;87.07;98924.13;124908;1093;64325;-81
2021/06/25 11:20:59;;;;;;;18.85;16.95;;;;;;;21.75;87.06;98929.72;124964;1093;64363;-81
2021/06/25 11:23:46;;;;;;;17.30;15.50;;;;;;;21.77;86.76;98929.52;124918;1093;64378;-81
2021/06/25 11:26:13;;;;;;;18.07;16.17;;;;;;;21.87;87.56;98932.88;125015;1093;64314;-80
2021/06/25 11:28:43;;;;;;;17.87;16.10;;;;;;;21.91;86.91;98935.06;124901;1093;64191;-80
2021/06/25 11:31:19;;;;;;;16.13;14.68;;;;;;;22.07;86.82;98931.42;124944;1093;64287;-81
2021/06/25 11:33:56;;;;;;;19.03;17.20;;;;;;;22.21;85.88;98929.00;124884;1093;64360;-81
2021/06/25 11:36:23;;;;;;;19.87;17.90;;;;;;;22.41;84.94;98926.64;124875;1092;64268;-81
2021/06/25 11:38:56;;;;;;;21.00;18.90;;;;;;;22.55;83.68;98926.72;124850;1093;64434;-81
2021/06/25 11:41:29;;;;;;;22.03;20.03;;;;;;;22.63;82.81;98928.53;124907;1093;64772;-81
2021/06/25 11:43:59;;;;;;;26.13;22.57;;;;;;;22.60;81.56;98930.78;124896;1093;64265;-81
2021/06/25 11:46:27;;;;;;;25.53;23.10;;;;;;;22.54;81.39;98937.78;124911;1093;64264;-80
2021/06/25 11:49:01;;;;;;;26.90;24.20;;;;;;;22.50;81.66;98940.00;125003;1093;64278;-80
2021/06/25 11:51:37;;;;;;;26.43;23.87;;;;;;;22.60;81.85;98950.63;125334;1093;64314;-86
2021/06/25 11:54:06;;;;;;;28.40;25.70;;;;;;;22.82;82.22;98940.77;124975;1093;64213;-87
2021/06/25 11:56:34;;;;;;;28.83;25.88;;;;;;;23.04;81.93;98939.11;124815;1092;64587;-84
2021/06/25 11:59:06;;;;;;;30.13;27.20;;;;;;;23.31;82.06;98944.95;124940;1093;64306;-79
2021/06/25 12:01:50;;;;;;;31.20;28.30;;;;;;;23.56;81.37;98949.08;124822;1093;64284;-78
2021/06/25 12:04:34;;;;;;;30.55;27.65;;;;;;;23.69;80.10;98953.88;124710;1093;64385;-78
2021/06/25 12:07:02;;;;;;;29.30;26.30;;;;;;;23.76;80.04;98951.28;124715;1093;64351;-78
2021/06/25 12:09:39;;;;;;;28.97;26.37;;;;;;;23.63;80.47;98949.19;124807;1093;64367;-77
2021/06/25 12:12:08;;;;;;;32.00;28.80;;;;;;;23.50;78.76;98951.72;124821;1093;64264;-77
2021/06/25 12:14:47;;;;;;;31.13;27.95;;;;;;;23.36;79.33;98956.13;124820;1093;64265;-78
2021/06/25 12:17:16;;;;;;;28.93;25.93;;;;;;;23.40;79.21;98951.98;124693;1093;64300;-81
2021/06/25 12:20:30;;;;;;;28.10;25.30;;;;;;;23.56;79.54;98948.24;125026;1093;64264;-78
2021/06/25 12:23:01;;;;;;;27.63;24.80;;;;;;;23.82;78.21;98942.36;124112;1097;64344;-79
2021/06/25 12:25:44;;;;;;;29.87;26.60;;;;;;;24.17;76.62;98929.83;124684;1093;64268;-80
2021/06/25 12:28:13;;;;;;;27.10;24.45;;;;;;;24.36;74.97;98932.97;124828;1093;64274;-79
2021/06/25 12:30:47;;;;;;;26.20;23.63;;;;;;;24.40;74.77;98932.37;124819;1093;64267;-79
2021/06/25 12:33:16;;;;;;;27.93;25.30;;;;;;;24.59;76.48;98927.34;124832;1093;64271;-79
2021/06/25 12:35:46;;;;;;;;;;;;;;;24.86;75.93;98921.12;124877;1092;64303;-79
2021/06/25 12:38:16;;;;;;;26.07;23.43;;;;;;;25.03;74.42;98921.67;124855;1093;64274;-79
2021/06/25 12:40:55;;;;;;;25.27;23.03;;;;;;;24.96;73.59;98924.36;124834;1093;64405;-79
2021/06/25 12:43:22;;;;;;;24.83;22.43;;;;;;;24.81;74.54;98918.14;124807;1093;64191;-78
2021/06/25 12:45:53;;;;;;;23.50;21.37;;;;;;;24.78;73.94;98920.39;124836;1093;64290;-78
2021/06/25 12:48:25;;;;;;;24.17;21.97;;;;;;;24.41;72.95;98916.86;124793;1093;64360;-79
2021/06/25 12:51:11;;;;;;;23.10;20.75;;;;;;;23.99;74.08;98921.23;124796;1093;64262;-79
2021/06/25 12:53:43;;;;;;;23.17;21.13;;;;;;;23.70;73.19;98930.22;124767;1092;64393;-78
2021/06/25 12:56:17;;;;;;;22.13;20.13;;;;;;;23.48;73.57;98941.02;124773;1093;64191;-77
2021/06/25 12:58:48;;;;;;;23.57;21.40;;;;;;;23.29;73.85;98942.41;124904;1093;64306;-78
2021/06/25 13:01:16;;;;;;;21.20;19.20;;;;;;;23.33;75.37;98929.27;124807;1093;64272;-78
2021/06/25 13:03:46;;;;;;;23.23;20.83;;;;;;;23.60;75.09;98925.92;124792;1093;64265;-78
2021/06/25 13:06:34;;;;;;;22.80;20.47;;;;;;;24.01;74.29;98924.58;124789;1093;64191;-78
2021/06/25 13:09:05;;;;;;;24.13;21.67;;;;;;;24.30;72.74;98919.08;124844;1093;64287;-78
2021/06/25 13:11:37;;;;;;;25.50;23.13;;;;;;;24.31;72.81;98922.64;124773;1093;64322;-78
2021/06/25 13:14:05;;;;;;;26.87;24.37;;;;;;;24.51;74.30;98934.64;124906;1092;64267;-79
2021/06/25 13:16:32;;;;;;;26.00;23.60;;;;;;;24.55;72.41;98936.97;124711;1093;64267;-79
2021/06/25 13:19:01;;;;;;;28.80;26.10;;;;;;;24.49;72.31;98935.87;124778;1093;64389;-79
2021/06/25 13:21:44;;;;;;;27.65;25.10;;;;;;;24.58;72.37;98931.96;124850;1093;64283;-79
2021/06/25 13:24:19;;;;;;;24.87;22.67;;;;;;;24.75;70.19;98938.02;124801;1093;64276;-79
2021/06/25 13:26:54;;;;;;;24.53;22.03;;;;;;;24.69;71.15;98936.05;124821;1093;64287;-79
2021/06/25 13:29:24;;;;;;;22.93;20.93;;;;;;;24.82;69.86;98938.89;124795;1093;64284;-80
2021/06/25 13:31:54;;;;;;;24.23;21.87;;;;;;;24.70;70.34;98940.48;124826;1093;64386;-79
2021/06/25 13:34:23;;;;;;;22.23;20.27;;;;;;;24.66;69.89;98939.16;124802;1093;64303;-80
2021/06/25 13:36:58;;;;;;;20.10;18.30;;;;;;;24.60;69.36;98945.41;124823;1093;64284;-78
2021/06/25 13:39:28;;;;;;;19.67;17.93;;;;;;;24.55;70.63;98945.98;124792;1093;64315;-79
2021/06/25 13:41:59;;;;;;;21.00;19.07;;;;;;;24.68;71.08;98942.55;124852;1093;64245;-79
2021/06/25 13:44:31;;;;;;;20.97;19.17;;;;;;;24.80;70.52;98946.42;124781;1093;64235;-79
2021/06/25 13:47:06;;;;;;;18.65;16.95;;;;;;;24.70;69.31;98954.11;124784;1093;64415;-79
2021/06/25 13:49:36;;;;;;;22.33;20.33;;;;;;;24.29;69.12;98944.61;124856;1092;64283;-78
2021/06/25 13:52:28;;;;;;;22.43;20.43;;;;;;;24.14;69.83;98945.69;125000;1093;64290;-79
2021/06/25 13:55:19;;;;;;;21.20;19.00;;;;;;;23.95;70.70;98941.69;124696;1093;64338;-79
2021/06/25 13:57:52;;;;;;;21.43;19.53;;;;;;;23.84;70.82;98943.02;124821;1092;64279;-79
2021/06/25 14:00:29;;;;;;;21.03;19.17;;;;;;;23.77;70.61;98945.64;124845;1092;64412;-80
2021/06/25 14:02:57;;;;;;;22.67;20.37;;;;;;;23.67;70.88;98953.20;124800;1093;64752;-79
2021/06/25 14:05:25;;;;;;;21.93;19.90;;;;;;;23.50;71.22;98944.40;124886;1093;64226;-79
2021/06/25 14:08:01;;;;;;;20.57;18.47;;;;;;;23.36;71.68;98946.09;124853;1093;64299;-79
2021/06/25 14:10:30;;;;;;;22.23;20.07;;;;;;;23.14;71.56;98952.41;124861;1093;64276;-79
2021/06/25 14:12:59;;;;;;;22.33;20.23;;;;;;;23.05;72.25;98948.09;124856;1093;64220;-79
2021/06/25 14:15:48;;;;;;;21.97;19.97;;;;;;;22.81;72.65;98958.12;124907;1093;64337;-79
2021/06/25 14:18:20;;;;;;;22.93;20.63;;;;;;;22.73;73.42;98950.88;124748;1092;64284;-79
2021/06/25 14:20:48;;;;;;;22.70;20.63;;;;;;;22.58;72.93;98947.24;124851;1093;64290;-79
2021/06/25 14:23:16;;;;;;;23.93;21.13;;;;;;;22.59;73.93;98954.36;124831;1093;64284;-79
2021/06/25 14:25:44;;;;;;;22.07;20.07;;;;;;;22.66;73.92;98947.18;124813;1093;64402;-79
2021/06/25 14:28:11;;;;;;;20.33;18.47;;;;;;;22.76;74.38;98942.34;124790;1093;64196;-81
2021/06/25 14:30:39;;;;;;;21.77;19.67;;;;;;;22.79;74.10;98944.70;124772;1093;64188;-79
2021/06/25 14:33:06;;;;;;;20.05;18.05;;;;;;;22.84;74.30;98948.75;124785;1093;64191;-79
2021/06/25 14:35:34;;;;;;;19.70;17.80;;;;;;;22.87;74.67;98937.52;124771;1093;64366;-79
2021/06/25 14:38:02;;;;;;;21.50;19.60;;;;;;;22.99;74.36;98934.21;124783;1093;64335;-79
2021/06/25 14:40:29;;;;;;;22.30;20.17;;;;;;;23.17;73.94;98939.31;124786;1093;64191;-79
2021/06/25 14:42:57;;;;;;;25.60;23.17;;;;;;;23.30;73.88;98938.68;124792;1093;64306;-79
2021/06/25 14:45:24;;;;;;;24.20;21.90;;;;;;;23.40;73.41;98938.39;124678;1093;64384;-78
2021/06/25 14:47:52;;;;;;;24.23;21.83;;;;;;;23.65;73.21;98928.92;124822;1093;64319;-79
2021/06/25 14:50:19;;;;;;;24.40;22.17;;;;;;;23.88;72.53;98919.81;124811;1092;64409;-80
2021/06/25 14:52:46;;;;;;;23.80;21.75;;;;;;;23.88;72.43;98908.92;124681;1093;64271;-78
2021/06/25 14:55:13;;;;;;;23.40;20.90;;;;;;;23.92;72.75;98906.69;124792;1093;64289;-78
2021/06/25 14:57:41;;;;;;;26.73;24.30;;;;;;;23.91;71.95;98916.73;124811;1093;64364;-78
2021/06/25 15:00:09;;;;;;;25.77;23.43;;;;;;;23.97;72.20;98918.69;124864;1093;64287;-79
2021/06/25 15:02:36;;;;;;;24.23;22.03;;;;;;;24.14;71.51;98923.91;124846;1093;64422;-79
2021/06/25 15:05:05;;;;;;;24.10;21.97;;;;;;;24.02;71.57;98913.52;124792;1093;64213;-79
2021/06/25 15:07:32;;;;;;;24.47;22.27;;;;;;;23.86;70.06;98913.74;124837;1093;64251;-79
2021/06/25 15:10:03;;;;;;;24.60;22.30;;;;;;;23.85;71.39;98914.76;124882;1093;64245;-79
2021/06/25 15:12:31;;;;;;;23.70;21.53;;;;;;;24.03;70.66;98915.19;124756;1093;64376;-79
2021/06/25 15:14:59;;;;;;;24.47;22.27;;;;;;;24.03;70.54;98917.08;124792;1093;64418;-79
2021/06/25 15:17:27;;;;;;;27.17;24.50;;;;;;;24.08;70.73;98923.63;124672;1093;64357;-80
2021/06/25 15:19:55;;;;;;;23.43;21.33;;;;;;;24.05;70.07;98915.02;124881;1093;64268;-79
2021/06/25 15:22:23;;;;;;;24.43;22.20;;;;;;;24.10;69.32;98915.28;124836;1093;64265;-79
2021/06/25 15:24:50;;;;;;;22.90;20.73;;;;;;;23.93;69.43;98909.20;124833;1092;64251;-79
2021/06/25 15:27:17;;;;;;;23.87;21.67;;;;;;;23.73;69.99;98919.85;124890;1093;64418;-80
2021/06/25 15:29:45;;;;;;;23.20;21.20;;;;;;;23.73;70.56;98908.13;124791;1093;64276;-79
2021/06/25 15:32:12;;;;;;;22.10;20.17;;;;;;;23.82;70.25;98906.98;124652;1093;64316;-79
2021/06/25 15:34:39;;;;;;;21.93;19.90;;;;;;;23.96;70.15;98900.68;124876;1093;64195;-78
2021/06/25 15:37:07;;;;;;;21.87;19.87;;;;;;;23.94;69.81;98908.19;124781;1093;64288;-79
2021/06/25 15:39:38;;;;;;;19.90;18.07;;;;;;;24.07;69.75;98910.23;124849;1093;64332;-79
2021/06/25 15:42:06;;;;;;;17.53;15.93;;;;;;;24.15;68.46;98910.11;124805;1092;64268;-79
2021/06/25 15:44:34;;;;;;;18.77;17.07;;;;;;;24.34;68.35;98903.19;124817;1093;64290;-79
2021/06/25 15:47:02;;;;;;;18.63;17.03;;;;;;;24.38;67.46;98906.36;124847;1093;64259;-79
2021/06/25 15:49:29;;;;;;;16.73;15.23;;;;;;;24.23;67.77;98909.98;124630;1093;64292;-79
2021/06/25 15:51:56;;;;;;;16.13;14.63;;;;;;;24.18;67.66;98917.89;124664;1093;64297;-79
2021/06/25 15:54:26;;;;;;;16.63;15.15;;;;;;;24.02;67.23;98916.23;124792;1093;64298;-78
2021/06/25 15:56:53;;;;;;;16.40;14.87;;;;;;;23.78;66.62;98911.97;124816;1093;64306;-79
2021/06/25 15:59:20;;;;;;;16.43;14.97;;;;;;;23.71;68.08;98921.05;124783;1093;64218;-79
2021/06/25 16:01:48;;;;;;;16.40;15.00;;;;;;;23.64;68.08;98921.81;124757;1093;64278;-79
2021/06/25 16:04:15;;;;;;;17.40;15.90;;;;;;;23.57;67.69;98923.58;124783;1093;64421;-79
2021/06/25 16:06:43;;;;;;;17.07;15.10;;;;;;;23.41;68.15;98921.89;124814;1093;64241;-79
2021/06/25 16:09:22;;;;;;;17.93;16.30;;;;;;;23.29;68.92;98926.09;124792;1093;64268;-79
2021/06/25 16:11:50;;;;;;;16.23;14.83;;;;;;;23.16;69.13;98928.61;124832;1093;64300;-79
2021/06/25 16:14:17;;;;;;;15.55;14.25;;;;;;;23.02;69.57;98919.41;124810;1093;64194;-79
2021/06/25 16:16:45;;;;;;;16.07;14.77;;;;;;;22.92;69.45;98924.22;124792;1093;64399;-79
2021/06/25 16:19:14;;;;;;;16.40;14.90;;;;;;;22.74;69.56;98916.39;124759;1093;64287;-79
2021/06/25 16:21:43;;;;;;;17.05;15.45;;;;;;;22.72;70.48;98905.72;124868;1093;64313;-79
2021/06/25 16:24:13;;;;;;;14.90;13.50;;;;;;;22.86;69.93;98903.23;124867;1093;64294;-79
2021/06/25 16:26:41;;;;;;;14.75;13.33;;;;;;;22.90;70.63;98899.94;124797;1093;64275;-79
2021/06/25 16:29:09;;;;;;;15.03;13.70;;;;;;;22.94;70.53;98898.55;124837;1093;64245;-79
2021/06/25 16:31:36;;;;;;;16.53;14.97;;;;;;;22.93;70.47;98902.31;124872;1093;64296;-78
2021/06/25 16:34:04;;;;;;;15.60;14.30;;;;;;;22.97;70.74;98895.48;124909;1092;64312;-78
2021/06/25 16:36:38;;;;;;;17.30;15.90;;;;;;;22.96;70.66;98895.63;124683;1093;64261;-78
2021/06/25 16:39:09;;;;;;;15.65;14.25;;;;;;;22.84;71.04;98891.69;124851;1093;64344;-78
2021/06/25 16:41:37;;;;;;;14.40;13.13;;;;;;;22.73;71.22;98901.13;124807;1093;64294;-78
2021/06/25 16:44:05;;;;;;;14.43;13.23;;;;;;;22.62;71.56;98906.97;124788;1093;64309;-78
2021/06/25 16:46:33;;;;;;;15.37;13.87;;;;;;;22.48;71.69;98906.73;124791;1093;64347;-79
2021/06/25 16:49:01;;;;;;;16.37;14.90;;;;;;;22.34;72.16;98908.38;124821;1093;64287;-79
2021/06/25 16:51:29;;;;;;;16.35;14.60;;;;;;;22.24;72.44;98905.04;124775;1093;64300;-78
2021/06/25 16:53:56;;;;;;;15.50;14.10;;;;;;;22.14;72.97;98907.11;124811;1092;64413;-79
2021/06/25 16:56:23;;;;;;;17.53;15.93;;;;;;;22.08;73.36;98913.27;124865;1093;64287;-80
2021/06/25 16:58:51;;;;;;;17.53;15.93;;;;;;;22.05;73.86;98921.77;124875;1093;64268;-79
2021/06/25 17:01:18;;;;;;;16.83;15.07;;;;;;;22.02;74.40;98930.27;124837;1093;64197;-79
2021/06/25 17:03:45;;;;;;;15.03;13.77;;;;;;;22.05;74.87;98928.03;124783;1093;64437;-79
2021/06/25 17:06:15;;;;;;;16.83;15.00;;;;;;;22.08;75.31;98933.09;124833;1093;64260;-79
2021/06/25 17:08:42;;;;;;;15.10;13.37;;;;;;;22.16;75.27;98931.38;124804;1093;64245;-79
2021/06/25 17:11:10;;;;;;;15.13;13.80;;;;;;;22.17;75.10;98933.05;124795;1093;64266;-80
2021/06/25 17:13:37;;;;;;;15.30;13.90;;;;;;;22.19;75.66;98942.73;124812;1093;64284;-79
2021/06/25 17:16:06;;;;;;;16.70;15.03;;;;;;;22.40;75.70;98939.39;124790;1093;64288;-79
2021/06/25 17:18:34;;;;;;;16.90;15.30;;;;;;;22.66;75.53;98941.75;124858;1093;64290;-79
2021/06/25 17:21:01;;;;;;;17.40;15.93;;;;;;;22.86;74.90;98947.55;124803;1093;64245;-79
2021/06/25 17:23:29;;;;;;;17.67;16.00;;;;;;;23.05;75.10;98954.38;124814;1093;64218;-79
2021/06/25 17:25:56;;;;;;;15.87;14.57;;;;;;;23.18;74.63;98957.30;124828;1093;64303;-79
2021/06/25 17:28:24;;;;;;;16.83;15.13;;;;;;;23.19;74.30;98960.86;124791;1093;64309;-81
2021/06/25 17:30:52;;;;;;;17.87;16.20;;;;;;;23.28;74.15;98943.45;124799;1093;64425;-78
2021/06/25 17:33:20;;;;;;;18.80;17.00;;;;;;;23.39;74.14;98945.70;124648;1093;64274;-77
2021/06/25 17:35:48;;;;;;;18.80;17.17;;;;;;;23.51;73.97;98951.52;124781;1092;64271;-77
2021/06/25 17:38:16;;;;;;;18.63;16.83;;;;;;;23.59;73.59;98956.89;124827;1093;64283;-77
2021/06/25 17:40:44;;;;;;;17.43;15.93;;;;;;;23.65;73.50;98944.41;124802;1093;64402;-78
2021/06/25 17:43:12;;;;;;;17.87;16.37;;;;;;;23.73;73.47;98946.23;124880;1093;64349;-78
2021/06/25 17:45:41;;;;;;;18.57;16.87;;;;;;;23.81;73.32;98941.52;124882;1093;64753;-78
2021/06/25 17:48:08;;;;;;;18.70;17.10;;;;;;;23.90;73.41;98963.19;124927;1093;64264;-78
2021/06/25 17:50:36;;;;;;;19.13;17.40;;;;;;;23.91;72.78;98964.87;124838;1093;64306;-78
2021/06/25 17:53:05;;;;;;;20.00;18.10;;;;;;;23.90;72.71;98955.86;124741;1093;64302;-78
2021/06/25 17:55:32;;;;;;;17.85;16.25;;;;;;;23.92;73.06;98953.80;124869;1093;64244;-78
2021/06/25 17:57:59;;;;;;;17.43;15.80;;;;;;;23.94;72.42;98954.46;124862;1093;64281;-78
2021/06/25 18:00:27;;;;;;;16.03;14.73;;;;;;;23.87;72.29;98948.92;124843;1093;64306;-78
2021/06/25 18:02:55;;;;;;;16.30;14.67;;;;;;;23.81;72.51;98936.08;124820;1093;64384;-79
2021/06/25 18:05:22;;;;;;;17.33;15.50;;;;;;;23.69;72.79;98925.82;124854;1093;64328;-78
2021/06/25 18:07:51;;;;;;;17.73;16.33;;;;;;;23.40;72.39;98936.50;124890;1093;64291;-78
2021/06/25 18:10:19;;;;;;;16.23;14.93;;;;;;;23.16;72.87;98936.77;124808;1093;64297;-78
2021/06/25 18:12:47;;;;;;;15.03;13.53;;;;;;;22.91;72.66;98931.53;124810;1093;64241;-78
2021/06/25 18:15:16;;;;;;;16.15;14.55;;;;;;;22.61;73.07;98932.45;124840;1093;64293;-78
2021/06/25 18:17:45;;;;;;;15.70;14.40;;;;;;;22.37;73.55;98939.75;124824;1093;64287;-79
2021/06/25 18:20:14;;;;;;;15.80;14.40;;;;;;;22.18;73.68;98938.31;124830;1093;64293;-78
2021/06/25 18:22:41;;;;;;;16.43;15.03;;;;;;;21.97;74.02;98938.09;124761;1093;64271;-78
2021/06/25 18:25:10;;;;;;;17.17;15.60;;;;;;;21.78;74.49;98937.50;124840;1093;64271;-79
2021/06/25 18:27:38;;;;;;;17.73;16.20;;;;;;;21.63;75.03;98934.66;124822;1093;64274;-79
2021/06/25 18:30:07;;;;;;;17.60;16.00;;;;;;;21.50;75.42;98947.09;124809;1093;64345;-78
2021/06/25 18:32:36;;;;;;;17.43;15.90;;;;;;;21.40;75.87;98952.69;124880;1093;64315;-79
2021/06/25 18:35:07;;;;;;;17.23;15.63;;;;;;;21.28;76.75;98967.61;124905;1093;64241;-77
2021/06/25 18:37:35;;;;;;;17.97;16.30;;;;;;;21.18;77.15;98971.34;124877;1093;64197;-78
2021/06/25 18:40:04;;;;;;;17.73;16.13;;;;;;;21.11;77.00;98974.90;124806;1093;64240;-78
2021/06/25 18:42:31;;;;;;;17.45;15.85;;;;;;;21.02;77.59;98971.36;124836;1093;64191;-78
2021/06/25 18:44:59;;;;;;;20.13;18.00;;;;;;;20.92;77.99;98959.84;124791;1092;64300;-78
2021/06/25 18:47:26;;;;;;;22.25;20.05;;;;;;;20.81;77.86;98958.32;124824;1093;64270;-79
2021/06/25 18:49:53;;;;;;;22.37;20.37;;;;;;;20.74;78.65;98954.59;124792;1093;64283;-78
2021/06/25 18:52:21;;;;;;;20.63;18.73;;;;;;;20.66;78.88;98946.46;124826;1093;64306;-77
2021/06/25 18:54:49;;;;;;;20.03;18.03;;;;;;;20.58;79.15;98960.84;124766;1093;64367;-78
2021/06/25 18:57:16;;;;;;;19.97;17.93;;;;;;;20.48;79.54;98960.95;124806;1093;64328;-78
2021/06/25 18:59:44;;;;;;;21.67;19.53;;;;;;;20.42;79.86;98961.63;124790;1093;64284;-78
2021/06/25 19:02:11;;;;;;;22.00;19.80;;;;;;;20.32;80.36;98958.22;124778;1092;64384;-78
2021/06/25 19:04:38;;;;;;;21.43;18.93;;;;;;;20.25;80.55;98949.94;124761;1093;64265;-78
2021/06/25 19:07:06;;;;;;;22.17;19.87;;;;;;;20.16;81.07;98954.46;124676;1093;64376;-78
2021/06/25 19:09:34;;;;;;;21.87;19.73;;;;;;;20.12;81.44;98950.41;124793;1093;65659;-78
2021/06/25 19:12:02;;;;;;;24.27;19.87;;;;;;;20.06;81.72;98950.20;124764;1093;64216;-78
2021/06/25 19:14:29;;;;;;;24.17;21.77;;;;;;;19.99;81.80;98946.48;124808;1093;64284;-78
2021/06/25 19:16:58;;;;;;;22.47;20.37;;;;;;;19.92;82.21;98955.23;124787;1093;64287;-78
2021/06/25 19:19:25;;;;;;;21.57;19.43;;;;;;;19.83;82.00;98961.64;124765;1093;64322;-78
2021/06/25 19:21:52;;;;;;;20.65;18.65;;;;;;;19.71;82.49;98971.88;124834;1093;64351;-78
2021/06/25 19:24:19;;;;;;;20.95;19.10;;;;;;;19.58;82.78;98979.55;124814;1093;64248;-78
2021/06/25 19:26:47;;;;;;;21.90;19.87;;;;;;;19.47;83.35;98977.13;124676;1093;64290;-78
2021/06/25 19:29:14;;;;;;;20.80;18.83;;;;;;;19.40;83.42;98966.09;124777;1093;64277;-78
2021/06/25 19:31:42;;;;;;;23.50;21.03;;;;;;;19.33;83.84;98975.03;124779;1093;64242;-79
2021/06/25 19:34:09;;;;;;;22.90;20.40;;;;;;;19.26;84.08;98966.69;124800;1093;64284;-79
2021/06/25 19:36:37;;;;;;;23.93;21.57;;;;;;;19.23;84.41;98978.66;124823;1093;64248;-78
2021/06/25 19:39:07;;;;;;;23.30;20.97;;;;;;;19.18;84.37;98964.78;124843;1092;64271;-79
2021/06/25 19:41:35;;;;;;;25.63;22.93;;;;;;;19.16;84.89;98968.65;124827;1093;64203;-78
2021/06/25 19:44:03;;;;;;;25.60;23.10;;;;;;;19.14;85.26;98966.13;124760;1092;64321;-78
2021/06/25 19:46:30;;;;;;;30.67;27.47;;;;;;;19.12;85.02;98951.92;124812;1093;64352;-79
2021/06/25 19:48:58;;;;;;;32.43;29.23;;;;;;;19.11;85.71;98961.01;124794;1093;64223;-78
2021/06/25 19:51:25;;;;;;;30.30;27.30;;;;;;;19.09;85.49;98971.15;124802;1093;64380;-78
2021/06/25 19:53:52;;;;;;;31.60;28.50;;;;;;;19.06;85.95;98975.02;124687;1093;64357;-78
2021/06/25 19:56:20;;;;;;;27.50;24.83;;;;;;;19.10;86.01;98970.13;124748;1093;64297;-78
2021/06/25 19:58:49;;;;;;;26.27;23.30;;;;;;;19.06;85.54;98974.14;124776;1093;64284;-79
2021/06/25 20:01:17;;;;;;;27.80;25.07;;;;;;;19.00;85.94;98972.08;124788;1093;64354;-78
2021/06/25 20:03:47;;;;;;;28.90;26.00;;;;;;;18.98;86.25;98963.28;124852;1093;64278;-78
2021/06/25 20:06:14;;;;;;;32.63;29.47;;;;;;;19.00;86.69;98953.17;124803;1092;64274;-78
2021/06/25 20:08:42;;;;;;;34.20;30.67;;;;;;;19.02;86.46;98953.87;124785;1093;64251;-78
2021/06/25 20:11:09;;;;;;;32.53;29.33;;;;;;;19.02;86.60;98957.41;124800;1093;64460;-79
2021/06/25 20:13:37;;;;;;;31.93;28.63;;;;;;;19.02;87.02;98948.47;124791;1093;64274;-78
2021/06/25 20:16:05;;;;;;;32.07;28.97;;;;;;;18.99;87.02;98955.03;124795;1093;64329;-78